createdAt,value
2018-09-13T00:00:57.275Z,17.33
2018-09-13T00:01:57.274Z,17.3
2018-09-13T00:02:56.763Z,17.37
2018-09-13T00:03:57.267Z,17.3
2018-09-13T00:04:57.006Z,17.31
2018-09-13T00:05:57.142Z,17.26
2018-09-13T00:06:57.252Z,17.3
2018-09-13T00:07:57.244Z,17.23
2018-09-13T00:08:57.238Z,17.21
2018-09-13T00:09:56.982Z,17.33
2018-09-13T00:10:57.228Z,17.34
2018-09-13T00:11:57.224Z,17.36
2018-09-13T00:12:57.218Z,17.28
2018-09-13T00:13:56.962Z,17.22
2018-09-13T00:14:57.212Z,17.22
2018-09-13T00:15:57.206Z,17.12
2018-09-13T00:16:56.947Z,17.15
2018-09-13T00:17:57.198Z,17.22
2018-09-13T00:18:57.181Z,17.16
2018-09-13T00:19:57.181Z,17.19
2018-09-13T00:20:57.177Z,17.18
2018-09-13T00:21:57.167Z,17.18
2018-09-13T00:22:57.169Z,17.15
2018-09-13T00:23:57.159Z,17.11
2018-09-13T00:24:57.154Z,17.12
2018-09-13T00:25:57.157Z,17.11
2018-09-13T00:26:57.145Z,17.14
2018-09-13T00:27:57.142Z,17.04
2018-09-13T00:28:57.134Z,17.16
2018-09-13T00:29:57.127Z,17.16
2018-09-13T00:30:57.124Z,17.07
2018-09-13T00:31:57.127Z,17.08
2018-09-13T00:32:57.120Z,17.14
2018-09-13T00:33:57.115Z,17.21
2018-09-13T00:34:57.111Z,17.21
2018-09-13T00:35:56.850Z,17.12
2018-09-13T00:36:56.845Z,17.04
2018-09-13T00:37:57.090Z,17.06
2018-09-13T00:38:57.086Z,17.07
2018-09-13T00:39:57.081Z,17.12
2018-09-13T00:40:57.076Z,17.15
2018-09-13T00:41:56.819Z,17.18
2018-09-13T00:42:57.069Z,17.12
2018-09-13T00:43:57.065Z,17.11
2018-09-13T00:44:57.060Z,17.19
2018-09-13T00:45:57.056Z,17.15
2018-09-13T00:46:56.801Z,17.18
2018-09-13T00:47:57.042Z,17.21
2018-09-13T00:48:56.786Z,17.12
2018-09-13T00:49:57.031Z,17.16
2018-09-13T00:50:57.037Z,17.14
2018-09-13T00:51:57.029Z,17.07
2018-09-13T00:52:57.021Z,17.16
2018-09-13T00:53:56.774Z,17.14
2018-09-13T00:54:57.009Z,17.12
2018-09-13T00:55:57.003Z,17.16
2018-09-13T00:56:57.000Z,17.12
2018-09-13T00:57:56.742Z,17.18
2018-09-13T00:58:57.174Z,17.19
2018-09-13T00:59:56.734Z,17.25
2018-09-13T01:00:56.981Z,17.3
2018-09-13T01:01:56.470Z,17.28
2018-09-13T01:02:56.971Z,17.26
2018-09-13T01:03:57.232Z,17.26
2018-09-13T01:04:56.959Z,17.25
2018-09-13T01:05:56.954Z,17.22
2018-09-13T01:06:56.959Z,17.23
2018-09-13T01:07:56.946Z,17.22
2018-09-13T01:08:56.948Z,17.18
2018-09-13T01:09:56.685Z,17.19
2018-09-13T01:10:56.679Z,17.16
2018-09-13T01:11:56.673Z,17.18
2018-09-13T01:12:56.927Z,17.14
2018-09-13T01:13:56.665Z,17.15
2018-09-13T01:14:56.916Z,17.19
2018-09-13T01:15:56.909Z,17.16
2018-09-13T01:16:56.901Z,17.18
2018-09-13T01:17:56.650Z,17.15
2018-09-13T01:18:56.893Z,17.19
2018-09-13T01:19:56.892Z,17.06
2018-09-13T01:20:56.630Z,17.18
2018-09-13T01:21:56.627Z,17.07
2018-09-13T01:22:56.873Z,17.12
2018-09-13T01:23:56.365Z,17.07
2018-09-13T01:24:56.611Z,17.06
2018-09-13T01:30:59.590Z,16.96
2018-09-13T01:31:56.836Z,16.93
2018-09-13T01:35:56.809Z,16.81
2018-09-13T01:36:56.804Z,16.78
2018-09-13T01:37:56.551Z,16.89
2018-09-13T01:41:56.785Z,16.83
2018-09-13T01:42:56.777Z,16.83
2018-09-13T01:43:56.517Z,16.88
2018-09-13T01:44:56.763Z,16.85
2018-09-13T01:46:56.508Z,16.88
2018-09-13T01:47:56.752Z,16.79
2018-09-13T01:49:56.748Z,16.81
2018-09-13T01:50:56.738Z,16.89
2018-09-13T01:51:56.731Z,16.86
2018-09-13T01:52:56.470Z,16.79
2018-09-13T01:53:56.717Z,16.82
2018-09-13T01:54:56.719Z,16.88
2018-09-13T01:55:56.712Z,16.81
2018-09-13T01:56:56.700Z,16.7
2018-09-13T01:57:56.695Z,16.71
2018-09-13T01:59:56.683Z,16.73
2018-09-13T02:00:56.437Z,16.7
2018-09-13T02:03:56.669Z,16.7
2018-09-13T02:04:56.406Z,16.73
2018-09-13T02:05:56.652Z,16.73
2018-09-13T02:06:56.654Z,16.71
2018-09-13T02:07:56.641Z,16.68
2018-09-13T02:08:56.887Z,16.66
2018-09-13T02:09:56.635Z,16.67
2018-09-13T02:10:56.626Z,16.66
2018-09-13T02:11:56.373Z,16.7
2018-09-13T02:12:56.618Z,16.66
2018-09-13T02:13:56.360Z,16.66
2018-09-13T02:14:56.606Z,16.58
2018-09-13T02:15:56.604Z,16.63
2018-09-13T02:16:56.594Z,16.63
2018-09-13T02:17:56.087Z,16.63
2018-09-13T02:18:56.584Z,16.71
2018-09-13T02:19:56.578Z,16.71
2018-09-13T02:20:56.575Z,16.68
2018-09-13T02:21:56.573Z,16.66
2018-09-13T02:22:56.578Z,16.66
2018-09-13T02:23:56.559Z,16.67
2018-09-13T02:24:56.556Z,16.73
2018-09-13T02:25:56.549Z,16.68
2018-09-13T02:26:56.542Z,16.7
2018-09-13T02:27:56.536Z,16.82
2018-09-13T02:28:56.533Z,16.76
2018-09-13T02:29:56.526Z,16.71
2018-09-13T02:30:56.526Z,16.68
2018-09-13T02:31:56.519Z,16.68
2018-09-13T02:32:56.513Z,16.6
2018-09-13T02:33:56.516Z,16.68
2018-09-13T02:34:56.501Z,16.66
2018-09-13T02:35:56.496Z,16.68
2018-09-13T02:36:56.239Z,16.68
2018-09-13T02:37:56.493Z,16.7
2018-09-13T02:38:56.235Z,16.7
2018-09-13T02:39:56.223Z,16.67
2018-09-13T02:40:56.221Z,16.64
2018-09-13T02:41:56.476Z,16.66
2018-09-13T02:42:56.459Z,16.61
2018-09-13T02:43:56.472Z,16.64
2018-09-13T02:44:56.447Z,16.61
2018-09-13T02:45:56.443Z,16.61
2018-09-13T02:46:56.192Z,16.58
2018-09-13T02:47:56.180Z,16.64
2018-09-13T02:48:56.455Z,16.61
2018-09-13T02:49:56.454Z,16.52
2018-09-13T02:50:56.421Z,16.6
2018-09-13T02:51:56.418Z,16.52
2018-09-13T02:52:56.162Z,16.52
2018-09-13T02:53:56.404Z,16.52
2018-09-13T02:54:56.396Z,16.53
2018-09-13T02:55:56.392Z,16.5
2018-09-13T02:56:56.391Z,16.43
2018-09-13T02:57:56.380Z,16.43
2018-09-13T02:58:56.384Z,16.35
2018-09-13T02:59:56.375Z,16.39
2018-09-13T03:00:56.367Z,16.28
2018-09-13T03:01:56.361Z,16.41
2018-09-13T03:02:56.361Z,16.33
2018-09-13T03:03:56.351Z,16.41
2018-09-13T03:04:56.351Z,16.33
2018-09-13T03:05:56.340Z,16.33
2018-09-13T03:06:56.332Z,16.28
2018-09-13T03:07:56.349Z,16.35
2018-09-13T03:08:56.324Z,16.39
2018-09-13T03:09:56.320Z,16.35
2018-09-13T03:10:56.563Z,16.34
2018-09-13T03:11:56.310Z,16.31
2018-09-13T03:12:56.304Z,16.33
2018-09-13T03:13:56.292Z,16.34
2018-09-13T03:14:56.300Z,16.3
2018-09-13T03:15:56.305Z,16.33
2018-09-13T03:16:56.281Z,16.24
2018-09-13T03:17:56.325Z,16.28
2018-09-13T03:18:56.273Z,16.33
2018-09-13T03:19:56.262Z,16.24
2018-09-13T03:20:56.257Z,16.3
2018-09-13T03:21:56.253Z,16.2
2018-09-13T03:22:55.999Z,16.28
2018-09-13T03:23:55.992Z,16.23
2018-09-13T03:24:55.991Z,16.25
2018-09-13T03:25:55.976Z,16.25
2018-09-13T03:26:56.223Z,16.25
2018-09-13T03:27:55.971Z,16.28
2018-09-13T03:28:56.215Z,16.25
2018-09-13T03:29:56.214Z,16.25
2018-09-13T03:30:56.213Z,16.25
2018-09-13T03:31:56.199Z,16.3
2018-09-13T03:32:56.195Z,16.27
2018-09-13T03:33:56.191Z,16.27
2018-09-13T03:34:56.195Z,16.28
2018-09-13T03:35:56.178Z,16.24
2018-09-13T03:36:55.969Z,16.09
2018-09-13T03:37:56.176Z,16.07
2018-09-13T03:38:56.159Z,16.23
2018-09-13T03:39:56.154Z,16.21
2018-09-13T03:40:55.897Z,16.12
2018-09-13T03:41:56.516Z,16.25
2018-09-13T03:42:55.894Z,16.15
2018-09-13T03:43:56.133Z,16.3
2018-09-13T03:44:56.134Z,16.21
2018-09-13T03:45:56.120Z,16.2
2018-09-13T03:46:56.132Z,16.23
2018-09-13T03:47:55.857Z,16.23
2018-09-13T03:48:56.108Z,16.2
2018-09-13T03:49:55.850Z,16.12
2018-09-13T03:50:56.101Z,16.15
2018-09-13T03:51:56.098Z,16.09
2018-09-13T03:52:56.093Z,16.02
2018-09-13T03:53:56.078Z,16.05
2018-09-13T03:54:56.075Z,15.94
2018-09-13T03:55:56.070Z,16
2018-09-13T03:56:55.810Z,15.97
2018-09-13T03:57:56.063Z,16
2018-09-13T03:58:56.050Z,15.96
2018-09-13T03:59:56.064Z,16
2018-09-13T04:00:56.057Z,16
2018-09-13T04:01:55.796Z,15.94
2018-09-13T04:02:56.028Z,16
2018-09-13T04:03:56.028Z,16
2018-09-13T04:04:56.015Z,15.9
2018-09-13T04:05:56.013Z,15.86
2018-09-13T04:10:55.990Z,15.72
2018-09-13T04:11:55.976Z,15.76
2018-09-13T04:12:55.976Z,15.75
2018-09-13T04:13:55.975Z,15.72
2018-09-13T04:14:55.961Z,15.72
2018-09-13T04:16:55.980Z,15.72
2018-09-13T04:17:55.943Z,15.71
2018-09-13T04:18:56.235Z,15.76
2018-09-13T04:19:55.933Z,15.74
2018-09-13T04:20:55.931Z,15.78
2018-09-13T04:21:55.417Z,15.75
2018-09-13T04:22:55.919Z,15.76
2018-09-13T04:23:55.654Z,15.74
2018-09-13T04:24:55.903Z,15.74
2018-09-13T04:25:55.897Z,15.69
2018-09-13T04:26:55.637Z,15.75
2018-09-13T04:28:55.875Z,15.65
2018-09-13T04:29:55.895Z,15.68
2018-09-13T04:30:55.863Z,15.71
2018-09-13T04:31:55.858Z,15.67
2018-09-13T04:32:55.944Z,15.74
2018-09-13T04:33:55.858Z,15.68
2018-09-13T04:34:55.841Z,15.68
2018-09-13T04:35:56.416Z,15.67
2018-09-13T04:36:55.579Z,15.69
2018-09-13T04:37:55.824Z,15.64
2018-09-13T04:38:55.817Z,15.64
2018-09-13T04:39:55.812Z,15.65
2018-09-13T04:40:55.810Z,15.64
2018-09-13T04:41:55.798Z,15.71
2018-09-13T04:42:55.793Z,15.72
2018-09-13T04:43:55.539Z,15.68
2018-09-13T04:44:55.784Z,15.68
2018-09-13T04:45:55.775Z,15.6
2018-09-13T04:46:55.772Z,15.68
2018-09-13T04:47:56.017Z,15.72
2018-09-13T04:48:55.510Z,15.69
2018-09-13T04:49:55.501Z,15.67
2018-09-13T04:50:55.765Z,15.59
2018-09-13T04:51:55.739Z,15.65
2018-09-13T04:52:55.482Z,15.68
2018-09-13T04:53:55.762Z,15.69
2018-09-13T04:54:55.734Z,15.72
2018-09-13T04:55:55.716Z,15.74
2018-09-13T04:56:55.710Z,15.75
2018-09-13T04:57:55.705Z,15.78
2018-09-13T04:58:55.697Z,15.71
2018-09-13T04:59:55.440Z,15.71
2018-09-13T05:00:55.686Z,15.72
2018-09-13T05:01:55.681Z,15.75
2018-09-13T05:02:55.685Z,15.74
2018-09-13T05:03:55.678Z,15.78
2018-09-13T05:04:55.665Z,15.83
2018-09-13T05:05:55.662Z,15.83
2018-09-13T05:06:55.657Z,15.86
2018-09-13T05:07:55.653Z,15.9
2018-09-13T05:08:55.393Z,15.97
2018-09-13T05:09:55.637Z,15.96
2018-09-13T05:10:55.628Z,15.93
2018-09-13T05:11:55.634Z,15.93
2018-09-13T05:12:55.865Z,15.94
2018-09-13T05:13:55.615Z,16.01
2018-09-13T05:14:55.612Z,15.94
2018-09-13T05:15:55.605Z,15.94
2018-09-13T05:16:55.343Z,16.05
2018-09-13T05:17:55.588Z,16.04
2018-09-13T05:18:55.831Z,16.07
2018-09-13T05:19:55.327Z,16.02
2018-09-13T05:20:55.579Z,15.97
2018-09-13T05:21:55.317Z,15.96
2018-09-13T05:22:55.560Z,16.01
2018-09-13T05:23:55.554Z,15.97
2018-09-13T05:24:55.549Z,16.05
2018-09-13T05:25:55.546Z,16
2018-09-13T05:26:55.538Z,16
2018-09-13T05:27:55.537Z,15.93
2018-09-13T05:28:55.532Z,15.97
2018-09-13T05:29:55.522Z,16.01
2018-09-13T05:30:55.522Z,16.05
2018-09-13T05:31:55.260Z,15.93
2018-09-13T05:32:55.513Z,16.02
2018-09-13T05:33:55.506Z,15.94
2018-09-13T05:34:54.991Z,15.96
2018-09-13T05:35:55.488Z,15.84
2018-09-13T05:36:55.483Z,15.92
2018-09-13T05:37:55.483Z,15.82
2018-09-13T05:38:55.714Z,15.87
2018-09-13T05:39:55.467Z,15.84
2018-09-13T05:40:55.462Z,15.83
2018-09-13T05:41:55.456Z,15.9
2018-09-13T05:43:55.456Z,15.83
2018-09-13T05:44:55.199Z,15.9
2018-09-13T05:45:55.433Z,15.9
2018-09-13T05:46:55.174Z,15.84
2018-09-13T05:47:55.425Z,15.83
2018-09-13T05:48:55.418Z,15.82
2018-09-13T05:49:55.416Z,15.78
2018-09-13T05:50:55.411Z,15.78
2018-09-13T05:51:55.402Z,15.71
2018-09-13T05:52:55.393Z,15.71
2018-09-13T05:53:55.145Z,15.68
2018-09-13T05:54:55.380Z,15.69
2018-09-13T05:55:55.376Z,15.62
2018-09-13T05:56:55.371Z,15.6
2018-09-13T05:57:55.364Z,15.59
2018-09-13T05:58:55.107Z,15.6
2018-09-13T05:59:55.388Z,15.62
2018-09-13T06:00:55.101Z,15.6
2018-09-13T06:01:55.090Z,15.68
2018-09-13T06:02:55.342Z,15.68
2018-09-13T06:03:55.338Z,15.65
2018-09-13T06:04:55.327Z,15.65
2018-09-13T06:05:55.066Z,15.62
2018-09-13T06:06:55.062Z,15.62
2018-09-13T06:07:55.232Z,15.68
2018-09-13T06:08:55.307Z,15.78
2018-09-13T06:09:55.301Z,15.74
2018-09-13T06:10:55.298Z,15.75
2018-09-13T06:11:55.035Z,15.71
2018-09-13T06:12:55.278Z,15.86
2018-09-13T06:13:55.274Z,15.84
2018-09-13T06:14:55.268Z,15.9
2018-09-13T06:15:55.013Z,16.01
2018-09-13T06:16:55.005Z,16
2018-09-13T06:17:55.252Z,15.97
2018-09-13T06:18:54.994Z,16.05
2018-09-13T06:19:55.636Z,16
2018-09-13T06:20:55.487Z,16.07
2018-09-13T06:21:55.232Z,16.09
2018-09-13T06:22:55.223Z,15.96
2018-09-13T06:23:55.217Z,15.94
2018-09-13T06:24:55.221Z,16
2018-09-13T06:25:55.209Z,15.94
2018-09-13T06:26:55.219Z,16.04
2018-09-13T06:27:55.214Z,16.09
2018-09-13T06:28:55.196Z,16.23
2018-09-13T06:29:55.188Z,16.28
2018-09-13T06:30:55.180Z,16.25
2018-09-13T06:31:55.175Z,16.3
2018-09-13T06:32:55.176Z,16.34
2018-09-13T06:33:55.171Z,16.38
2018-09-13T06:34:55.172Z,16.24
2018-09-13T06:35:55.206Z,16.24
2018-09-13T06:36:54.897Z,16.28
2018-09-13T06:37:55.152Z,16.31
2018-09-13T06:38:55.138Z,16.25
2018-09-13T06:39:55.134Z,16.21
2018-09-13T06:40:55.130Z,16.14
2018-09-13T06:41:55.126Z,16.09
2018-09-13T06:42:55.142Z,16.05
2018-09-13T06:43:55.113Z,16.15
2018-09-13T06:44:55.113Z,16.24
2018-09-13T06:45:54.600Z,16.21
2018-09-13T06:46:55.101Z,16.2
2018-09-13T06:47:54.590Z,16.12
2018-09-13T06:48:55.092Z,16.07
2018-09-13T06:49:55.086Z,16
2018-09-13T06:50:55.094Z,16.08
2018-09-13T06:51:55.084Z,16
2018-09-13T06:52:55.071Z,15.94
2018-09-13T06:53:55.059Z,15.92
2018-09-13T06:54:54.806Z,15.71
2018-09-13T06:55:54.799Z,15.76
2018-09-13T06:56:54.793Z,15.78
2018-09-13T06:57:55.041Z,15.71
2018-09-13T06:58:54.791Z,15.64
2018-09-13T06:59:55.029Z,15.65
2018-09-13T07:00:54.523Z,15.6
2018-09-13T07:01:55.021Z,15.54
2018-09-13T07:02:55.018Z,15.67
2018-09-13T07:03:54.757Z,15.6
2018-09-13T07:04:54.752Z,15.56
2018-09-13T07:05:54.998Z,15.59
2018-09-13T07:06:54.995Z,15.62
2018-09-13T07:07:54.993Z,15.65
2018-09-13T07:08:54.988Z,15.67
2018-09-13T07:09:54.728Z,15.78
2018-09-13T07:10:54.970Z,15.65
2018-09-13T07:11:54.974Z,15.56
2018-09-13T07:12:54.963Z,15.57
2018-09-13T07:13:54.956Z,15.6
2018-09-13T07:14:54.953Z,15.56
2018-09-13T07:15:54.951Z,15.53
2018-09-13T07:16:54.950Z,15.54
2018-09-13T07:17:54.935Z,15.43
2018-09-13T07:18:54.936Z,15.5
2018-09-13T07:19:54.928Z,15.51
2018-09-13T07:20:54.920Z,15.5
2018-09-13T07:21:54.912Z,15.5
2018-09-13T07:22:54.907Z,15.41
2018-09-13T07:23:54.706Z,15.51
2018-09-13T07:24:54.648Z,15.54
2018-09-13T07:25:54.892Z,15.54
2018-09-13T07:26:54.888Z,15.53
2018-09-13T07:27:54.882Z,15.49
2018-09-13T07:28:54.877Z,15.53
2018-09-13T07:29:54.872Z,15.64
2018-09-13T07:30:54.705Z,15.64
2018-09-13T07:31:54.867Z,15.6
2018-09-13T07:32:54.856Z,15.65
2018-09-13T07:33:54.849Z,15.68
2018-09-13T07:34:54.847Z,15.74
2018-09-13T07:35:54.839Z,15.8
2018-09-13T07:36:55.140Z,15.89
2018-09-13T07:37:54.841Z,16
2018-09-13T07:38:54.830Z,16.02
2018-09-13T07:39:54.820Z,16.04
2018-09-13T07:40:54.812Z,16.11
2018-09-13T07:41:54.308Z,16.23
2018-09-13T07:42:55.025Z,16.24
2018-09-13T07:43:54.548Z,16.25
2018-09-13T07:44:54.543Z,16.3
2018-09-13T07:45:54.537Z,16.33
2018-09-13T07:46:54.838Z,16.45
2018-09-13T07:47:54.778Z,16.58
2018-09-13T07:48:54.786Z,16.61
2018-09-13T07:49:55.697Z,16.7
2018-09-13T07:50:54.765Z,16.83
2018-09-13T07:51:54.506Z,16.88
2018-09-13T07:52:54.764Z,16.83
2018-09-13T07:53:54.748Z,16.78
2018-09-13T07:55:26.619Z,16.91
2018-09-13T07:55:55.027Z,16.93
2018-09-13T07:56:54.733Z,16.88
2018-09-13T07:58:54.727Z,17
2018-09-13T07:59:54.468Z,16.93
2018-09-13T08:00:54.463Z,17.11
2018-09-13T08:01:54.492Z,17.22
2018-09-13T08:02:54.701Z,17.18
2018-09-13T08:03:54.700Z,17.07
2018-09-13T08:04:54.748Z,17.11
2018-09-13T08:05:54.689Z,17.07
2018-09-13T08:06:54.487Z,17.07
2018-09-13T08:07:54.686Z,17.03
2018-09-13T08:08:54.677Z,16.94
2018-09-13T08:09:54.681Z,16.93
2018-09-13T08:10:54.668Z,16.88
2018-09-13T08:11:54.610Z,16.78
2018-09-13T08:12:54.662Z,16.81
2018-09-13T08:13:54.653Z,16.81
2018-09-13T08:14:54.656Z,16.86
2018-09-13T08:15:54.819Z,16.83
2018-09-13T08:16:54.639Z,16.78
2018-09-13T08:17:54.637Z,16.79
2018-09-13T08:18:54.380Z,16.96
2018-09-13T08:19:54.625Z,17.01
2018-09-13T08:20:54.623Z,17.07
2018-09-13T08:21:54.817Z,17.06
2018-09-13T08:22:54.666Z,17.07
2018-09-13T08:23:54.609Z,17.01
2018-09-13T08:24:54.611Z,16.96
2018-09-13T08:25:54.600Z,16.94
2018-09-13T08:26:54.620Z,16.89
2018-09-13T08:27:54.345Z,16.91
2018-09-13T08:28:54.587Z,16.89
2018-09-13T08:29:54.330Z,16.94
2018-09-13T08:30:54.581Z,16.98
2018-09-13T08:31:54.574Z,17.01
2018-09-13T08:32:54.318Z,17.11
2018-09-13T08:33:54.565Z,17.15
2018-09-13T08:34:55.011Z,17.18
2018-09-13T08:35:54.560Z,17.11
2018-09-13T08:36:54.413Z,17
2018-09-13T08:37:54.548Z,17.04
2018-09-13T08:38:54.556Z,17
2018-09-13T08:39:54.817Z,16.98
2018-09-13T08:40:54.536Z,17.06
2018-09-13T08:41:54.531Z,17.03
2018-09-13T08:42:54.298Z,17.06
2018-09-13T08:43:54.520Z,17.07
2018-09-13T08:44:54.525Z,17.07
2018-09-13T08:45:54.517Z,17.18
2018-09-13T08:46:54.512Z,17.18
2018-09-13T08:47:54.553Z,17.22
2018-09-13T08:51:54.513Z,17.11
2018-09-13T08:52:54.485Z,17.11
2018-09-13T08:54:54.476Z,17.07
2018-09-13T08:55:54.467Z,17.14
2018-09-13T08:59:54.449Z,17.03
2018-09-13T09:00:54.365Z,17.12
2018-09-13T09:01:54.440Z,17.12
2018-09-13T09:02:54.441Z,17.06
2018-09-13T09:03:54.443Z,17
2018-09-13T09:04:54.435Z,16.91
2018-09-13T09:05:54.171Z,16.88
2018-09-13T09:06:54.170Z,16.94
2018-09-13T09:08:54.419Z,16.82
2018-09-13T09:11:54.515Z,16.79
2018-09-13T09:12:54.137Z,16.85
2018-09-13T09:13:54.394Z,16.78
2018-09-13T09:14:54.133Z,16.73
2018-09-13T09:15:56.663Z,16.6
2018-09-13T09:16:54.377Z,16.53
2018-09-13T09:17:54.381Z,16.46
2018-09-13T09:19:54.361Z,16.33
2018-09-13T09:20:54.355Z,16.24
2018-09-13T09:21:54.350Z,16.33
2018-09-13T09:22:54.343Z,16.3
2018-09-13T09:24:54.334Z,16.31
2018-09-13T09:25:54.680Z,16.34
2018-09-13T09:26:54.576Z,16.27
2018-09-13T09:27:54.319Z,16.09
2018-09-13T09:29:54.572Z,15.97
2018-09-13T09:30:54.311Z,15.83
2018-09-13T09:31:54.049Z,15.74
2018-09-13T09:32:54.300Z,15.65
2018-09-13T09:33:54.292Z,15.67
2018-09-13T09:34:54.334Z,15.67
2018-09-13T09:35:54.288Z,15.64
2018-09-13T09:36:54.294Z,15.53
2018-09-13T09:37:54.276Z,15.6
2018-09-13T09:38:54.267Z,15.6
2018-09-13T09:39:54.166Z,15.57
2018-09-13T09:40:54.259Z,15.5
2018-09-13T09:41:54.254Z,15.53
2018-09-13T09:42:54.263Z,15.41
2018-09-13T09:43:54.240Z,15.51
2018-09-13T09:44:54.307Z,15.54
2018-09-13T09:45:54.233Z,15.53
2018-09-13T09:46:54.234Z,15.57
2018-09-13T09:47:54.278Z,15.65
2018-09-13T09:48:54.214Z,15.64
2018-09-13T09:49:54.213Z,15.74
2018-09-13T09:50:54.205Z,15.76
2018-09-13T09:51:54.070Z,15.8
2018-09-13T09:52:54.202Z,15.84
2018-09-13T09:53:54.248Z,15.87
2018-09-13T09:54:54.185Z,15.93
2018-09-13T09:55:54.192Z,16.01
2018-09-13T09:56:54.173Z,15.96
2018-09-13T09:57:54.353Z,15.96
2018-09-13T09:58:53.912Z,15.96
2018-09-13T09:59:53.916Z,15.94
2018-09-13T10:00:54.189Z,15.92
2018-09-13T10:01:53.902Z,16.01
2018-09-13T10:02:53.894Z,15.96
2018-09-13T10:03:54.141Z,16
2018-09-13T10:04:53.882Z,16
2018-09-13T10:05:54.130Z,16.04
2018-09-13T10:06:54.134Z,15.97
2018-09-13T10:07:54.120Z,15.97
2018-09-13T10:08:54.177Z,15.82
2018-09-13T10:09:54.181Z,15.86
2018-09-13T10:10:54.107Z,15.8
2018-09-13T10:11:54.106Z,15.76
2018-09-13T10:12:54.094Z,15.75
2018-09-13T10:13:54.089Z,15.78
2018-09-13T10:14:54.085Z,15.8
2018-09-13T10:15:54.085Z,15.8
2018-09-13T10:17:54.077Z,15.94
2018-09-13T10:18:54.066Z,15.92
2018-09-13T10:20:54.056Z,15.87
2018-09-13T10:21:53.801Z,15.94
2018-09-13T10:23:19.487Z,15.93
2018-09-13T10:23:53.789Z,16.08
2018-09-13T10:24:54.035Z,16.23
2018-09-13T10:25:54.029Z,16.33
2018-09-13T10:26:56.847Z,16.34
2018-09-13T10:27:54.023Z,16.45
2018-09-13T10:28:54.018Z,16.46
2018-09-13T10:29:53.759Z,16.49
2018-09-13T10:30:54.764Z,16.52
2018-09-13T10:31:54.002Z,16.68
2018-09-13T10:33:53.994Z,16.53
2018-09-13T10:35:53.980Z,16.49
2018-09-13T10:36:53.979Z,16.56
2018-09-13T10:37:53.973Z,16.57
2018-09-13T10:38:53.973Z,16.58
2018-09-13T10:40:53.966Z,16.75
2018-09-13T10:41:53.960Z,16.75
2018-09-13T10:45:53.934Z,16.96
2018-09-13T10:46:53.688Z,16.91
2018-09-13T10:48:01.364Z,16.86
2018-09-13T10:48:53.924Z,16.91
2018-09-13T10:49:53.919Z,16.93
2018-09-13T10:50:53.911Z,17.01
2018-09-13T10:51:54.022Z,17.03
2018-09-13T10:52:53.903Z,17.07
2018-09-13T10:53:53.901Z,17.11
2018-09-13T10:54:53.899Z,17.15
2018-09-13T10:55:54.179Z,17.04
2018-09-13T10:56:53.897Z,16.93
2018-09-13T10:57:53.886Z,16.96
2018-09-13T10:58:53.886Z,16.82
2018-09-13T10:59:53.874Z,16.73
2018-09-13T11:00:53.872Z,16.75
2018-09-13T11:01:53.863Z,16.76
2018-09-13T11:02:53.857Z,16.73
2018-09-13T11:03:53.882Z,16.66
2018-09-13T11:04:53.855Z,16.63
2018-09-13T11:05:53.602Z,16.53
2018-09-13T11:08:53.585Z,16.39
2018-09-13T11:09:53.578Z,16.34
2018-09-13T11:10:54.091Z,16.33
2018-09-13T11:11:53.565Z,16.31
2018-09-13T11:12:53.813Z,16.24
2018-09-13T11:13:53.809Z,16.27
2018-09-13T11:14:53.805Z,16.27
2018-09-13T11:16:06.278Z,16.25
2018-09-13T11:16:53.792Z,16.21
2018-09-13T11:17:53.537Z,16.2
2018-09-13T11:18:53.784Z,16.31
2018-09-13T11:19:53.785Z,16.35
2018-09-13T11:20:53.523Z,16.43
2018-09-13T11:21:53.923Z,16.42
2018-09-13T11:22:53.520Z,16.45
2018-09-13T11:23:53.758Z,16.45
2018-09-13T11:24:53.755Z,16.5
2018-09-13T11:25:53.497Z,16.56
2018-09-13T11:26:53.241Z,16.52
2018-09-13T11:27:53.236Z,16.56
2018-09-13T11:28:53.485Z,16.61
2018-09-13T11:29:53.740Z,16.64
2018-09-13T11:30:53.726Z,16.68
2018-09-13T11:31:53.727Z,16.71
2018-09-13T11:32:53.717Z,16.7
2018-09-13T11:33:53.714Z,16.76
2018-09-13T11:34:53.710Z,16.85
2018-09-13T11:35:53.707Z,16.83
2018-09-13T11:36:53.701Z,16.89
2018-09-13T11:37:53.694Z,16.86
2018-09-13T11:38:53.694Z,16.88
2018-09-13T11:39:53.999Z,16.98
2018-09-13T11:40:55.001Z,16.98
2018-09-13T11:41:53.431Z,17.01
2018-09-13T11:42:53.170Z,17
2018-09-13T11:43:53.670Z,16.96
2018-09-13T11:44:53.665Z,16.91
2018-09-13T11:45:53.660Z,16.88
2018-09-13T11:46:53.658Z,16.78
2018-09-13T11:47:53.652Z,16.7
2018-09-13T11:48:53.647Z,16.6
2018-09-13T11:49:53.648Z,16.56
2018-09-13T11:50:53.637Z,16.64
2018-09-13T11:51:53.382Z,16.53
2018-09-13T11:52:53.630Z,16.67
2018-09-13T11:53:53.778Z,16.66
2018-09-13T11:54:53.620Z,16.53
2018-09-13T11:55:53.634Z,16.6
2018-09-13T11:56:53.611Z,16.48
2018-09-13T11:57:53.609Z,16.42
2018-09-13T11:58:53.600Z,16.41
2018-09-13T11:59:53.599Z,16.41
2018-09-13T12:00:53.597Z,16.31
2018-09-13T12:01:53.777Z,16.38
2018-09-13T12:02:53.583Z,16.41
2018-09-13T12:03:53.579Z,16.46
2018-09-13T12:04:53.585Z,16.57
2018-09-13T12:05:53.573Z,16.56
2018-09-13T12:06:53.314Z,16.63
2018-09-13T12:07:53.309Z,16.53
2018-09-13T12:08:53.304Z,16.6
2018-09-13T12:09:53.554Z,16.56
2018-09-13T12:10:53.293Z,16.57
2018-09-13T12:11:53.292Z,16.53
2018-09-13T12:12:53.541Z,16.6
2018-09-13T12:13:53.533Z,16.52
2018-09-13T12:14:53.533Z,16.63
2018-09-13T12:15:53.521Z,16.7
2018-09-13T12:16:53.519Z,16.73
2018-09-13T12:17:53.324Z,16.71
2018-09-13T12:18:53.881Z,16.76
2018-09-13T12:19:53.251Z,16.75
2018-09-13T12:20:53.499Z,16.78
2018-09-13T12:21:53.245Z,16.73
2018-09-13T12:22:53.504Z,16.88
2018-09-13T12:23:53.739Z,16.79
2018-09-13T12:24:53.484Z,16.81
2018-09-13T12:25:53.483Z,16.81
2018-09-13T12:26:53.219Z,16.82
2018-09-13T12:27:53.468Z,16.81
2018-09-13T12:28:52.959Z,16.86
2018-09-13T12:29:53.205Z,16.78
2018-09-13T12:30:53.452Z,16.78
2018-09-13T12:31:53.461Z,16.81
2018-09-13T12:32:53.194Z,16.89
2018-09-13T12:33:53.669Z,16.89
2018-09-13T12:34:53.190Z,16.94
2018-09-13T12:35:53.186Z,17.04
2018-09-13T12:36:53.174Z,16.98
2018-09-13T12:37:53.421Z,17.01
2018-09-13T12:38:53.165Z,16.98
2018-09-13T12:39:53.415Z,16.93
2018-09-13T12:40:53.413Z,16.79
2018-09-13T12:41:53.151Z,16.75
2018-09-13T12:42:53.147Z,16.85
2018-09-13T12:43:53.397Z,16.76
2018-09-13T12:44:53.141Z,16.86
2018-09-13T12:45:53.137Z,16.93
2018-09-13T12:46:53.380Z,17.06
2018-09-13T12:47:53.378Z,17.19
2018-09-13T12:48:53.377Z,17.18
2018-09-13T12:49:53.548Z,17.23
2018-09-13T12:50:53.362Z,17.26
2018-09-13T12:51:53.363Z,17.3
2018-09-13T12:52:53.353Z,17.22
2018-09-13T12:53:53.099Z,17.25
2018-09-13T12:54:53.596Z,17.33
2018-09-13T12:55:53.342Z,17.38
2018-09-13T12:56:53.270Z,17.43
2018-09-13T12:57:53.082Z,17.46
2018-09-13T12:58:53.332Z,17.58
2018-09-13T12:59:53.329Z,17.62
2018-09-13T13:00:53.076Z,17.59
2018-09-13T13:01:53.064Z,17.68
2018-09-13T13:02:53.061Z,17.72
2018-09-13T13:03:53.313Z,17.79
2018-09-13T13:04:53.302Z,17.77
2018-09-13T13:05:53.301Z,17.86
2018-09-13T13:06:53.605Z,17.86
2018-09-13T13:07:52.788Z,17.97
2018-09-13T13:08:53.442Z,18.02
2018-09-13T13:09:53.285Z,18.14
2018-09-13T13:10:53.280Z,18.07
2018-09-13T13:11:53.277Z,18.15
2018-09-13T13:12:53.274Z,18.29
2018-09-13T13:13:53.265Z,18.29
2018-09-13T13:14:53.268Z,18.35
2018-09-13T13:15:53.258Z,18.29
2018-09-13T13:16:53.139Z,18.25
2018-09-13T13:17:53.252Z,18.14
2018-09-13T13:18:53.266Z,18.18
2018-09-13T13:19:52.992Z,18.18
2018-09-13T13:20:53.246Z,18.25
2018-09-13T13:21:53.236Z,18.3
2018-09-13T13:22:53.233Z,18.36
2018-09-13T13:23:52.981Z,18.27
2018-09-13T13:24:53.226Z,18.3
2018-09-13T13:25:53.474Z,18.45
2018-09-13T13:26:53.226Z,18.5
2018-09-13T13:27:53.098Z,18.58
2018-09-13T13:28:52.960Z,18.54
2018-09-13T13:29:53.210Z,18.55
2018-09-13T13:30:53.207Z,18.57
2018-09-13T13:31:52.949Z,18.63
2018-09-13T13:32:53.196Z,18.73
2018-09-13T13:33:52.951Z,18.82
2018-09-13T13:34:53.203Z,18.84
2018-09-13T13:35:53.190Z,18.81
2018-09-13T13:36:53.192Z,18.73
2018-09-13T13:37:52.931Z,18.67
2018-09-13T13:38:53.178Z,18.66
2018-09-13T13:39:53.175Z,18.65
2018-09-13T13:40:53.174Z,18.67
2018-09-13T13:41:52.918Z,18.76
2018-09-13T13:42:53.165Z,18.81
2018-09-13T13:43:53.328Z,18.94